Time;durP1;ratioP1;P1;durP2;ratioP2;P2;SDS_P1;SDS_P2;PMS_P1;PMS_P2;Temp;Humidity;BMP_temperature;BMP_pressure;BME280_temperature;BME280_humidity;BME280_pressure;Samples;Min_cycle;Max_cycle;Signal;HPM_P1;HPM_P2
2022/08/10 00:01:49;;;;;;;0.83;0.83;;;;;;;23.94;44.81;95262.53;5072145;28;20525;-58
2022/08/10 00:04:20;;;;;;;0.50;0.50;;;;;;;24.34;44.33;95302.84;5072261;28;20432;-58
2022/08/10 00:06:50;;;;;;;0.60;0.43;;;;;;;24.64;48.69;95303.84;5072432;28;20789;-57
2022/08/10 00:09:18;;;;;;;0.50;0.40;;;;;;;24.92;44.83;95298.94;5071586;28;20524;-58
2022/08/10 00:11:48;;;;;;;0.70;0.50;;;;;;;24.73;43.42;95274.56;5072246;28;20862;-58
2022/08/10 00:14:17;;;;;;;0.40;0.20;;;;;;;24.76;43.14;95289.31;5072230;28;20853;-57
2022/08/10 00:16:45;;;;;;;0.83;0.80;;;;;;;24.34;44.58;95298.19;5071925;28;20432;-58
2022/08/10 00:19:14;;;;;;;0.60;0.33;;;;;;;24.41;46.72;95311.88;5071650;28;20511;-58
2022/08/10 00:21:45;;;;;;;1.57;0.80;;;;;;;24.04;46.52;95302.56;5071663;28;20513;-58
2022/08/10 00:24:13;;;;;;;0.60;0.50;;;;;;;24.13;47.53;95305.91;5071712;28;20421;-58
2022/08/10 00:26:42;;;;;;;0.90;0.50;;;;;;;23.97;46.56;95305.13;5071756;28;20561;-58
2022/08/10 00:29:32;;;;;;;1.70;1.00;;;;;;;23.69;49.10;95299.88;5072000;28;20455;-59
2022/08/10 00:32:00;;;;;;;3.50;0.87;;;;;;;23.69;50.99;95296.38;5071796;28;20456;-58
2022/08/10 00:34:28;;;;;;;0.70;0.60;;;;;;;23.38;53.74;95301.88;5072093;28;20508;-59
2022/08/10 00:36:58;;;;;;;0.60;0.40;;;;;;;23.13;55.19;95293.09;5071705;28;20524;-59
2022/08/10 00:39:26;;;;;;;1.23;0.87;;;;;;;22.25;56.03;95156.53;5072045;28;20504;-59
2022/08/10 00:41:55;;;;;;;0.70;0.70;;;;;;;23.35;53.79;95277.03;5071298;28;20512;-59
2022/08/10 00:44:37;;;;;;;0.87;0.40;;;;;;;23.24;52.76;95278.72;5071497;28;20421;-59
2022/08/10 00:47:06;;;;;;;1.33;0.30;;;;;;;23.29;53.21;95291.97;5071070;28;20455;-59
2022/08/10 00:49:55;;;;;;;0.90;0.77;;;;;;;23.30;53.21;95288.13;5071552;28;20444;-59
2022/08/10 00:52:24;;;;;;;0.83;0.63;;;;;;;23.74;53.44;95291.50;5071902;28;20421;-59
2022/08/10 00:54:53;;;;;;;1.07;0.33;;;;;;;24.06;49.86;95288.69;5070769;28;20421;-59
2022/08/10 00:57:21;;;;;;;0.40;0.30;;;;;;;23.83;46.79;95262.28;5071345;28;20500;-59
2022/08/10 00:59:52;;;;;;;0.50;0.30;;;;;;;24.16;47.27;95285.47;5071413;28;20420;-59
2022/08/10 01:02:28;;;;;;;0.40;0.30;;;;;;;24.42;45.61;95285.56;5071558;28;20413;-58
2022/08/10 01:04:57;;;;;;;0.40;0.30;;;;;;;24.46;45.84;95289.16;5071694;28;20891;-58
2022/08/10 01:07:51;;;;;;;0.50;0.40;;;;;;;24.42;44.99;95288.28;5071430;28;20433;-58
2022/08/10 01:10:29;;;;;;;0.50;0.40;;;;;;;23.93;50.75;95296.16;5073148;28;20437;-57
2022/08/10 01:13:06;;;;;;;0.40;0.30;;;;;;;23.81;51.00;95293.56;5075676;28;20436;-58
2022/08/10 01:15:43;;;;;;;0.40;0.30;;;;;;;24.00;51.03;95293.59;5075135;28;20421;-58
2022/08/10 01:18:18;;;;;;;0.40;0.30;;;;;;;23.76;50.02;95261.34;5075188;28;20558;-58
2022/08/10 01:21:04;;;;;;;1.03;1.03;;;;;;;23.61;50.97;95291.94;5075081;28;20925;-58
2022/08/10 01:23:53;;;;;;;0.60;0.37;;;;;;;23.99;50.36;95287.41;5074344;28;20425;-58
2022/08/10 01:27:07;;;;;;;0.60;0.40;;;;;;;24.33;48.38;95287.72;5074869;28;20514;-58
2022/08/10 01:30:00;;;;;;;0.50;0.50;;;;;;;24.38;47.31;95288.22;5055373;28;20436;-58
2022/08/10 01:32:42;;;;;;;0.50;0.30;;;;;;;24.29;47.21;95300.41;5072723;28;20460;-59
2022/08/10 01:35:15;;;;;;;2.23;0.43;;;;;;;23.89;50.11;95298.78;5074998;28;20444;-59
2022/08/10 01:37:50;;;;;;;0.70;0.40;;;;;;;23.66;53.44;95294.38;5074258;28;20431;-59
2022/08/10 01:40:25;;;;;;;1.93;0.50;;;;;;;23.63;53.87;95289.69;5074364;28;20477;-59
2022/08/10 01:42:56;;;;;;;0.60;0.60;;;;;;;23.64;53.94;95286.63;5074347;28;20448;-59
2022/08/10 01:45:41;;;;;;;0.40;0.30;;;;;;;23.53;54.53;95290.25;5074190;28;20526;-59
2022/08/10 01:48:27;;;;;;;0.40;0.30;;;;;;;23.41;54.08;95288.41;5074740;28;20508;-59
2022/08/10 01:51:03;;;;;;;0.70;0.70;;;;;;;23.54;52.72;95281.75;5074846;28;20517;-58
2022/08/10 01:53:37;;;;;;;0.73;0.70;;;;;;;23.47;53.39;95283.50;5074601;28;20424;-58
2022/08/10 01:56:11;;;;;;;0.70;0.70;;;;;;;23.35;54.56;95289.78;5074918;28;20440;-59
2022/08/10 01:58:40;;;;;;;1.10;1.00;;;;;;;23.38;54.36;95274.81;5074366;28;20479;-59
2022/08/10 02:01:14;;;;;;;0.50;0.50;;;;;;;23.43;54.29;95275.31;5074696;28;20761;-59
2022/08/10 02:03:46;;;;;;;1.30;0.87;;;;;;;23.23;55.03;95271.72;5074758;28;20463;-58
2022/08/10 02:06:35;;;;;;;0.50;0.30;;;;;;;23.45;54.60;95264.16;5074516;28;20491;-58
2022/08/10 02:09:06;;;;;;;2.60;0.60;;;;;;;23.76;52.74;95255.94;5074578;28;20938;-58
2022/08/10 02:11:35;;;;;;;0.40;0.30;;;;;;;23.96;51.97;95266.44;5074543;28;20452;-58
2022/08/10 02:14:27;;;;;;;6.53;0.40;;;;;;;24.24;51.32;95262.78;5074488;28;20425;-58
2022/08/10 02:17:06;;;;;;;0.50;0.40;;;;;;;24.45;50.25;95272.13;5074336;28;20429;-58
2022/08/10 02:19:39;;;;;;;0.40;0.30;;;;;;;24.12;51.50;95271.03;5074074;28;20762;-58
2022/08/10 02:22:09;;;;;;;0.60;0.57;;;;;;;23.84;49.66;95290.94;5073187;28;20524;-58
2022/08/10 02:24:59;;;;;;;0.60;0.40;;;;;;;24.05;50.54;95268.94;5073932;28;20429;-58
2022/08/10 02:27:29;;;;;;;0.40;0.27;;;;;;;24.15;47.04;95292.78;5074154;28;20544;-58
2022/08/10 02:29:59;;;;;;;0.40;0.33;;;;;;;24.34;45.72;95275.75;5074168;28;20840;-58
2022/08/10 02:32:30;;;;;;;0.50;0.40;;;;;;;24.47;45.21;95285.28;5073859;28;20519;-58
2022/08/10 02:35:08;;;;;;;0.40;0.40;;;;;;;24.44;48.51;95286.78;5073852;28;20977;-58
2022/08/10 02:37:52;;;;;;;0.60;0.53;;;;;;;24.56;49.33;95285.88;5074267;28;20422;-58
2022/08/10 02:40:24;;;;;;;0.53;0.53;;;;;;;23.88;54.08;95288.31;5073757;28;20431;-58
2022/08/10 02:43:21;;;;;;;0.50;0.30;;;;;;;24.33;50.71;95285.03;5073654;28;20957;-58
2022/08/10 02:46:13;;;;;;;0.40;0.30;;;;;;;24.27;50.86;95281.03;5073620;28;20465;-58
2022/08/10 02:48:58;;;;;;;0.40;0.30;;;;;;;24.38;50.83;95287.44;5073554;28;20463;-58
2022/08/10 02:51:32;;;;;;;0.50;0.30;;;;;;;24.49;50.80;95280.28;5073885;28;20840;-58
2022/08/10 02:54:22;;;;;;;0.40;0.30;;;;;;;24.43;52.40;95289.88;5073384;28;20447;-58
2022/08/10 02:56:55;;;;;;;0.63;0.43;;;;;;;24.53;51.55;95289.28;5073325;28;20424;-58
2022/08/10 02:59:28;;;;;;;0.40;0.30;;;;;;;24.18;53.55;95288.59;5073340;28;20457;-58
2022/08/10 03:02:12;;;;;;;0.40;0.30;;;;;;;23.91;52.62;95285.66;5073266;28;20472;-58
2022/08/10 03:04:46;;;;;;;0.40;0.30;;;;;;;23.64;55.66;95283.13;5073518;28;20500;-56
2022/08/10 03:07:29;;;;;;;0.50;0.30;;;;;;;24.07;54.71;95282.13;5072869;28;20992;-57
2022/08/10 03:10:15;;;;;;;0.50;0.40;;;;;;;24.10;54.43;95290.38;5072607;28;20494;-57
2022/08/10 03:12:45;;;;;;;0.40;0.30;;;;;;;24.38;52.58;95290.94;5073068;28;20425;-57
2022/08/10 03:15:17;;;;;;;0.40;0.30;;;;;;;24.57;53.60;95295.56;5073162;28;20431;-57
2022/08/10 03:17:47;;;;;;;0.93;0.63;;;;;;;24.21;55.84;95296.00;5072632;28;20514;-67
2022/08/10 03:20:29;;;;;;;0.60;0.57;;;;;;;24.17;62.05;95297.84;5072385;28;20425;-67
2022/08/10 03:23:10;;;;;;;0.50;0.30;;;;;;;24.08;55.99;95299.97;5072824;28;20453;-65
2022/08/10 03:25:40;;;;;;;0.50;0.50;;;;;;;23.84;56.98;95293.66;5072838;28;20421;-66
2022/08/10 03:28:22;;;;;;;0.60;0.40;;;;;;;24.28;56.42;95291.53;5072331;28;20445;-66
2022/08/10 03:30:51;;;;;;;0.40;0.20;;;;;;;24.57;61.60;95295.56;5072488;28;20547;-66
2022/08/10 03:33:21;;;;;;;0.40;0.20;;;;;;;24.58;59.40;95294.41;5072441;28;20421;-66
2022/08/10 03:35:51;;;;;;;0.40;0.30;;;;;;;24.16;60.68;95220.47;5072860;28;20452;-66
2022/08/10 03:38:40;;;;;;;0.50;0.40;;;;;;;24.53;50.74;95303.63;5072466;28;20940;-66
2022/08/10 03:41:12;;;;;;;0.40;0.30;;;;;;;24.18;53.71;95299.41;5072392;28;20504;-67
2022/08/10 03:43:46;;;;;;;0.50;0.30;;;;;;;24.58;58.86;95302.53;5072372;28;20416;-66
2022/08/10 03:46:19;;;;;;;0.90;0.60;;;;;;;24.83;57.36;95297.63;5072079;28;20666;-65
2022/08/10 03:48:51;;;;;;;0.60;0.30;;;;;;;24.94;53.92;95310.25;5072115;28;20515;-66
2022/08/10 03:51:23;;;;;;;0.40;0.20;;;;;;;24.19;52.15;95236.75;5072370;28;20425;-65
2022/08/10 03:53:53;;;;;;;0.50;0.30;;;;;;;24.34;56.80;95302.84;5072273;28;20529;-66
2022/08/10 03:56:36;;;;;;;0.43;0.30;;;;;;;24.46;59.35;95303.47;5072099;28;20890;-66
2022/08/10 03:59:06;;;;;;;0.50;0.40;;;;;;;23.91;57.80;95201.75;5072271;28;20440;-66
2022/08/10 04:01:35;;;;;;;0.40;0.20;;;;;;;24.69;58.16;95297.34;5072257;28;20436;-66
2022/08/10 04:04:24;;;;;;;0.60;0.30;;;;;;;24.41;54.14;95303.00;5072338;28;20429;-66
2022/08/10 04:06:57;;;;;;;0.60;0.40;;;;;;;24.14;57.78;95314.78;5072014;28;20503;-66
2022/08/10 04:09:29;;;;;;;0.77;0.77;;;;;;;24.08;60.66;95316.22;5072254;28;20810;-66
2022/08/10 04:12:17;;;;;;;0.97;0.97;;;;;;;23.88;64.15;95313.44;5072112;28;20951;-66
2022/08/10 04:14:46;;;;;;;0.80;0.80;;;;;;;24.20;61.09;95314.19;5071908;28;20453;-66
2022/08/10 04:17:20;;;;;;;0.40;0.30;;;;;;;24.44;62.85;95307.69;5071194;28;20444;-65
2022/08/10 04:20:18;;;;;;;0.50;0.40;;;;;;;24.14;64.78;95326.41;5071896;28;20816;-66
2022/08/10 04:22:52;;;;;;;0.67;0.60;;;;;;;23.58;69.98;95330.56;5071377;28;20423;-66
2022/08/10 04:25:22;;;;;;;0.50;0.50;;;;;;;22.73;77.68;95339.97;5071592;28;20461;-66
2022/08/10 04:27:52;;;;;;;0.70;0.60;;;;;;;23.16;76.91;95331.03;5071823;28;20556;-67
2022/08/10 04:30:21;;;;;;;0.40;0.30;;;;;;;23.83;69.07;95332.66;5071638;28;20429;-66
2022/08/10 04:32:53;;;;;;;0.40;0.30;;;;;;;24.17;67.16;95341.97;5071695;28;20449;-66
2022/08/10 04:35:24;;;;;;;0.50;0.40;;;;;;;23.94;67.19;95344.53;5071673;28;20953;-67
2022/08/10 04:37:55;;;;;;;0.60;0.40;;;;;;;23.93;67.37;95336.78;5071709;28;20447;-67
2022/08/10 04:40:24;;;;;;;0.60;0.30;;;;;;;24.11;68.29;95348.78;5071672;28;20508;-67
2022/08/10 04:43:01;;;;;;;0.40;0.30;;;;;;;24.17;68.12;95338.47;5071126;28;20417;-67
2022/08/10 04:45:38;;;;;;;0.53;0.50;;;;;;;24.06;70.14;95345.56;5070768;28;20429;-67
2022/08/10 04:48:23;;;;;;;0.40;0.30;;;;;;;24.24;68.61;95346.72;5071593;28;20460;-69
2022/08/10 04:51:09;;;;;;;0.63;0.50;;;;;;;23.59;67.19;95332.91;5071341;28;20445;-67
2022/08/10 04:53:48;;;;;;;0.80;0.50;;;;;;;23.32;70.19;95282.38;5071163;28;20417;-50
2022/08/10 04:56:35;;;;;;;0.50;0.40;;;;;;;24.17;70.69;95346.59;5071374;28;20467;-51
2022/08/10 04:59:05;;;;;;;0.40;0.30;;;;;;;24.17;72.81;95352.00;5071092;28;20424;-51
2022/08/10 05:01:33;;;;;;;0.50;0.30;;;;;;;24.34;70.29;95341.53;5071190;28;20928;-50
2022/08/10 05:04:22;;;;;;;0.50;0.30;;;;;;;24.47;67.99;95344.91;5070563;28;20433;-50
2022/08/10 05:07:08;;;;;;;0.60;0.60;;;;;;;23.24;66.34;95235.44;5071384;28;20467;-50
2022/08/10 05:09:38;;;;;;;0.50;0.50;;;;;;;23.43;73.16;95342.16;5071545;28;20417;-50
2022/08/10 05:12:28;;;;;;;0.60;0.60;;;;;;;23.71;71.49;95278.66;5071422;28;20452;-51
2022/08/10 05:14:57;;;;;;;0.40;0.33;;;;;;;24.44;69.09;95351.03;5071663;28;20414;-51
2022/08/10 05:17:26;;;;;;;0.40;0.30;;;;;;;24.61;66.53;95350.63;5070831;28;20984;-54
2022/08/10 05:19:54;;;;;;;0.53;0.50;;;;;;;24.80;63.95;95341.69;5071167;28;20496;-54
2022/08/10 05:22:35;;;;;;;0.77;0.50;;;;;;;24.89;62.71;95337.66;5071380;28;20461;-54
2022/08/10 05:25:08;;;;;;;0.50;0.30;;;;;;;25.01;60.78;95337.47;5071288;28;20460;-54
2022/08/10 05:27:37;;;;;;;0.50;0.30;;;;;;;24.99;62.47;95339.78;5071493;28;20544;-55
2022/08/10 05:30:07;;;;;;;0.40;0.20;;;;;;;25.01;61.70;95334.75;5071792;28;20449;-55
2022/08/10 05:32:36;;;;;;;0.40;0.30;;;;;;;25.14;61.29;95343.50;5070663;28;20873;-54
2022/08/10 05:35:25;;;;;;;0.50;0.50;;;;;;;25.13;60.09;95322.94;5071397;28;20924;-55
2022/08/10 05:37:55;;;;;;;0.43;0.30;;;;;;;25.01;58.52;95277.81;5071145;28;20512;-54
2022/08/10 05:40:41;;;;;;;0.50;0.30;;;;;;;25.59;57.65;95345.44;5071288;28;20459;-55
2022/08/10 05:43:17;;;;;;;0.50;0.40;;;;;;;25.54;57.79;95345.75;5071198;28;20923;-55
2022/08/10 05:45:46;;;;;;;0.40;0.30;;;;;;;25.77;56.84;95341.09;5071531;28;20482;-55
2022/08/10 05:48:35;;;;;;;2.40;0.33;;;;;;;25.57;55.63;95337.69;5070678;28;20472;-56
2022/08/10 05:51:25;;;;;;;0.40;0.30;;;;;;;25.70;53.39;95330.88;5071377;28;20880;-55
2022/08/10 05:53:54;;;;;;;0.47;0.30;;;;;;;25.82;52.23;95328.00;5071223;28;20421;-57
2022/08/10 05:56:35;;;;;;;0.40;0.40;;;;;;;25.95;52.61;95330.50;5071037;28;20429;-55
2022/08/10 05:59:24;;;;;;;0.60;0.50;;;;;;;26.01;49.48;95329.03;5074361;28;20444;-56
2022/08/10 06:02:17;;;;;;;0.40;0.30;;;;;;;26.49;47.42;95334.34;5074637;28;20520;-56
2022/08/10 06:05:08;;;;;;;0.73;0.73;;;;;;;26.64;44.73;95329.09;5074466;28;20429;-56
2022/08/10 06:07:42;;;;;;;0.43;0.40;;;;;;;26.67;46.41;95334.56;5074287;28;20465;-54
2022/08/10 06:10:15;;;;;;;0.60;0.43;;;;;;;26.76;45.20;95337.00;5074626;28;20418;-54
2022/08/10 06:16:05;;;;;;;1.23;1.23;;;;;;;26.04;46.00;95320.91;5074353;28;20940;-55
2022/08/10 06:18:35;;;;;;;0.53;0.50;;;;;;;26.03;47.16;95327.50;5073879;28;20601;-54
2022/08/10 06:21:04;;;;;;;0.80;0.80;;;;;;;26.13;44.51;95317.97;5074188;28;20483;-55
2022/08/10 06:23:34;;;;;;;0.40;0.40;;;;;;;26.53;43.11;95314.59;5073847;28;20914;-55
2022/08/10 06:26:04;;;;;;;2.40;0.50;;;;;;;26.98;43.38;95319.78;5074122;28;20812;-55
2022/08/10 06:28:46;;;;;;;0.40;0.40;;;;;;;27.45;41.62;95319.09;5073749;28;20531;-55
2022/08/10 06:31:33;;;;;;;0.97;0.70;;;;;;;27.73;41.33;95318.53;5073623;28;20868;-55
2022/08/10 06:34:19;;;;;;;1.27;0.60;;;;;;;28.22;43.40;95319.63;5074019;28;20818;-54
2022/08/10 06:36:49;;;;;;;0.50;0.40;;;;;;;28.46;40.06;95311.97;5073925;28;20516;-54
2022/08/10 06:39:17;;;;;;;0.63;0.33;;;;;;;28.87;38.71;95299.63;5073965;28;20468;-54
2022/08/10 06:42:10;;;;;;;0.40;0.30;;;;;;;29.45;37.37;95302.88;5073247;28;20464;-55
2022/08/10 06:44:59;;;;;;;0.30;0.30;;;;;;;29.71;36.76;95290.75;5073099;28;20931;-54
2022/08/10 06:47:33;;;;;;;0.40;0.40;;;;;;;28.75;36.81;95292.59;5072867;28;20437;-55
2022/08/10 06:50:08;;;;;;;0.50;0.30;;;;;;;29.49;37.91;95289.22;5073385;28;20460;-54
2022/08/10 06:52:38;;;;;;;0.50;0.50;;;;;;;29.90;36.47;95289.59;5073345;28;20451;-55
2022/08/10 06:55:12;;;;;;;0.60;0.47;;;;;;;30.04;35.98;95284.88;5073077;28;20490;-59
2022/08/10 06:57:47;;;;;;;0.67;0.67;;;;;;;30.62;35.62;95287.03;5072951;28;20476;-63
2022/08/10 07:00:32;;;;;;;0.40;0.40;;;;;;;30.26;35.75;95273.88;5073209;28;20497;-63
2022/08/10 07:03:08;;;;;;;2.40;0.53;;;;;;;30.64;35.23;95286.63;5073374;28;20420;-63
2022/08/10 07:05:40;;;;;;;0.30;0.20;;;;;;;31.52;34.51;95288.09;5073362;28;20435;-62
2022/08/10 07:08:12;;;;;;;0.90;0.53;;;;;;;31.61;34.19;95280.97;5072725;28;20466;-61
2022/08/10 07:10:42;;;;;;;0.60;0.60;;;;;;;31.30;33.42;95282.75;5072316;28;20891;-62
2022/08/10 07:13:16;;;;;;;0.50;0.50;;;;;;;31.37;34.24;95276.44;5073046;28;20471;-63
2022/08/10 07:16:11;;;;;;;0.40;0.40;;;;;;;31.94;32.59;95276.72;5073072;28;20438;-61
2022/08/10 07:18:42;;;;;;;0.50;0.40;;;;;;;32.11;31.53;95275.78;5072067;28;20541;-61
2022/08/10 07:21:12;;;;;;;0.43;0.40;;;;;;;32.63;31.31;95274.44;5072479;28;20526;-60
2022/08/10 07:23:44;;;;;;;0.70;0.70;;;;;;;32.83;31.39;95268.28;5072814;28;20459;-62
2022/08/10 07:26:27;;;;;;;0.80;0.40;;;;;;;32.60;29.23;95264.28;5073113;28;20491;-62
2022/08/10 07:28:57;;;;;;;0.50;0.50;;;;;;;32.03;31.03;95264.13;5073023;28;20503;-59
2022/08/10 07:31:28;;;;;;;1.47;1.47;;;;;;;32.42;30.16;95266.44;5072758;28;20429;-59
2022/08/10 07:34:19;;;;;;;0.30;0.30;;;;;;;32.96;29.07;95258.28;5073188;28;20430;-59
2022/08/10 07:37:01;;;;;;;0.67;0.50;;;;;;;33.45;30.21;95240.28;5072913;28;20550;-59
2022/08/10 07:39:32;;;;;;;0.60;0.50;;;;;;;33.63;30.05;95252.56;5072756;28;20430;-58
2022/08/10 07:42:24;;;;;;;0.63;0.50;;;;;;;33.20;30.21;95248.91;5072569;28;20449;-59
2022/08/10 07:44:53;;;;;;;0.50;0.43;;;;;;;32.44;28.31;95246.81;5072649;28;20431;-58
2022/08/10 07:47:28;;;;;;;0.43;0.40;;;;;;;33.13;26.80;95246.28;5072691;28;20432;-58
2022/08/10 07:50:20;;;;;;;0.50;0.50;;;;;;;33.33;27.72;95241.66;5072444;28;20480;-59
2022/08/10 07:52:51;;;;;;;0.43;0.40;;;;;;;34.04;26.68;95243.97;5072692;28;20436;-58
2022/08/10 07:55:21;;;;;;;0.40;0.40;;;;;;;34.30;26.24;95234.84;5072768;28;20860;-59
2022/08/10 07:58:11;;;;;;;1.90;0.67;;;;;;;34.08;26.41;95233.69;5072411;28;20440;-59
2022/08/10 08:00:40;;;;;;;5.80;0.50;;;;;;;34.25;26.60;95234.56;5072876;28;20813;-58
2022/08/10 08:03:13;;;;;;;0.80;0.80;;;;;;;34.20;25.68;95229.56;5072696;28;20852;-59
2022/08/10 08:05:43;;;;;;;0.80;0.70;;;;;;;34.35;25.61;95222.56;5072376;28;20920;-59
2022/08/10 08:08:32;;;;;;;0.40;0.40;;;;;;;33.80;25.16;95223.97;5072334;28;20475;-57
2022/08/10 08:11:01;;;;;;;0.60;0.50;;;;;;;34.09;25.12;95223.47;5072378;28;20432;-57
2022/08/10 08:13:31;;;;;;;0.83;0.80;;;;;;;34.52;24.62;95221.41;5072862;28;20425;-57
2022/08/10 08:16:03;;;;;;;0.63;0.40;;;;;;;33.82;24.22;95213.34;5072542;28;20852;-58
2022/08/10 08:18:53;;;;;;;0.50;0.40;;;;;;;33.10;25.21;95216.91;5071797;28;20476;-57
2022/08/10 08:21:42;;;;;;;1.27;0.40;;;;;;;33.72;24.49;95217.06;5072059;28;20428;-57
2022/08/10 08:24:32;;;;;;;0.73;0.73;;;;;;;33.49;26.01;95216.28;5071830;28;20440;-57
2022/08/10 08:27:03;;;;;;;0.40;0.30;;;;;;;34.27;25.79;95223.91;5072086;28;20460;-58
2022/08/10 08:29:35;;;;;;;1.50;0.50;;;;;;;35.01;23.63;95203.81;5071937;28;20495;-58
2022/08/10 08:32:04;;;;;;;0.40;0.40;;;;;;;35.82;25.54;95203.81;5071704;28;21067;-57
2022/08/10 08:34:37;;;;;;;0.40;0.30;;;;;;;35.47;24.97;95205.47;5072219;28;20448;-57
2022/08/10 08:37:08;;;;;;;4.37;0.50;;;;;;;34.57;24.60;95204.41;5072592;28;20440;-58
2022/08/10 08:39:39;;;;;;;0.40;0.40;;;;;;;35.15;24.33;95188.94;5071904;28;20265;-57
2022/08/10 08:42:23;;;;;;;0.40;0.30;;;;;;;35.27;22.86;95193.75;5072119;28;20588;-57
2022/08/10 08:45:08;;;;;;;0.40;0.30;;;;;;;35.92;22.43;95193.69;5071923;28;20760;-57
2022/08/10 08:48:01;;;;;;;0.43;0.40;;;;;;;34.84;23.32;95135.38;5071868;28;20294;-57
2022/08/10 08:50:53;;;;;;;1.07;0.40;;;;;;;34.73;24.46;95187.94;5071806;28;20206;-58
2022/08/10 08:53:45;;;;;;;0.40;0.30;;;;;;;34.81;24.95;95191.31;5072254;28;20219;-57
2022/08/10 08:56:41;;;;;;;0.87;0.40;;;;;;;34.97;22.83;95185.81;5071925;28;20779;-57
2022/08/10 08:59:28;;;;;;;0.40;0.30;;;;;;;34.78;23.79;95187.44;5071778;28;20650;-56
2022/08/10 09:02:17;;;;;;;0.60;0.43;;;;;;;33.73;23.00;95157.34;5071874;28;20502;-57
2022/08/10 09:05:01;;;;;;;0.30;0.30;;;;;;;34.01;22.97;95186.25;5071478;28;20413;-57
2022/08/10 09:07:51;;;;;;;0.50;0.50;;;;;;;34.91;24.15;95180.06;5071566;28;20457;-56
2022/08/10 09:10:39;;;;;;;2.00;0.43;;;;;;;35.29;21.43;95174.06;5071622;28;20499;-56
2022/08/10 09:13:14;;;;;;;0.53;0.50;;;;;;;35.39;22.77;95176.53;5071992;28;20846;-57
2022/08/10 09:15:51;;;;;;;1.47;0.30;;;;;;;35.68;21.36;95171.09;5072193;28;20229;-56
2022/08/10 09:18:24;;;;;;;0.40;0.40;;;;;;;35.39;23.42;95175.75;5071355;28;20662;-57
2022/08/10 09:20:58;;;;;;;2.30;0.80;;;;;;;34.84;23.00;95173.94;5071692;28;20609;-57
2022/08/10 09:23:36;;;;;;;0.50;0.50;;;;;;;34.82;23.43;95104.72;5071510;28;20230;-57
2022/08/10 09:26:33;;;;;;;0.50;0.40;;;;;;;36.39;21.48;95180.16;5071306;28;20678;-57
2022/08/10 09:29:03;;;;;;;0.40;0.30;;;;;;;36.75;20.74;95175.94;5071775;28;20218;-57
2022/08/10 09:31:45;;;;;;;0.50;0.40;;;;;;;37.61;19.47;95171.22;5073330;28;20604;-56
2022/08/10 09:34:46;;;;;;;0.40;0.40;;;;;;;38.57;19.85;95161.03;5075073;28;20194;-56
2022/08/10 09:37:42;;;;;;;0.40;0.30;;;;;;;37.39;17.18;95157.31;5074320;28;20217;-57
2022/08/10 09:40:46;;;;;;;3.65;1.60;;;;;;;38.05;17.12;95159.75;5074975;28;20209;-56
2022/08/10 09:43:40;;;;;;;0.40;0.30;;;;;;;37.62;18.05;95156.94;5074737;28;20202;-56
2022/08/10 09:46:19;;;;;;;0.50;0.30;;;;;;;37.34;18.10;95163.41;5075004;28;20190;-57
2022/08/10 09:49:02;;;;;;;0.47;0.30;;;;;;;36.70;19.76;95167.41;5075335;28;20211;-57
2022/08/10 09:51:36;;;;;;;0.40;0.40;;;;;;;36.50;20.01;95164.88;5074952;28;20643;-57
2022/08/10 09:54:36;;;;;;;0.30;0.30;;;;;;;37.27;19.34;95166.41;5074772;28;20186;-57
2022/08/10 09:57:15;;;;;;;0.68;0.60;;;;;;;37.63;18.31;95164.00;5074527;28;20686;-57
2022/08/10 10:00:11;;;;;;;0.30;0.30;;;;;;;38.24;17.49;95149.59;5074952;28;20186;-57
2022/08/10 10:02:51;;;;;;;0.90;0.90;;;;;;;38.30;18.35;95142.28;5074702;28;20294;-57
2022/08/10 10:05:36;;;;;;;0.52;0.40;;;;;;;38.79;17.23;95141.63;5074810;28;20549;-57
2022/08/10 10:08:17;;;;;;;1.17;1.17;;;;;;;38.43;17.16;95150.50;5074521;28;20230;-57
2022/08/10 10:10:57;;;;;;;1.67;0.30;;;;;;;38.36;18.56;95150.75;5074487;28;20242;-58
2022/08/10 10:13:34;;;;;;;0.30;0.30;;;;;;;38.17;18.15;95143.53;5074371;28;20190;-58
2022/08/10 10:16:41;;;;;;;0.30;0.30;;;;;;;38.66;18.00;95142.44;5073357;28;20653;-58
2022/08/10 10:19:27;;;;;;;0.40;0.40;;;;;;;37.04;17.27;95137.13;5073933;28;20322;-58
2022/08/10 10:22:07;;;;;;;0.40;0.40;;;;;;;37.48;17.95;95141.63;5073491;28;20199;-58
2022/08/10 10:24:45;;;;;;;0.40;0.30;;;;;;;38.02;16.24;95149.63;5074237;28;20202;-57
2022/08/10 10:27:22;;;;;;;0.50;0.40;;;;;;;38.24;17.39;95121.91;5074693;28;20266;-58
2022/08/10 10:30:03;;;;;;;0.50;0.30;;;;;;;38.45;17.80;95131.44;5073973;28;20648;-58
2022/08/10 10:32:47;;;;;;;0.77;0.35;;;;;;;38.26;15.79;95136.06;5074057;28;20230;-57
2022/08/10 10:35:23;;;;;;;0.30;0.30;;;;;;;38.02;17.40;95105.34;5074197;28;20218;-58
2022/08/10 10:37:53;;;;;;;0.30;0.30;;;;;;;37.62;17.25;95121.00;5074072;28;20186;-58
2022/08/10 10:40:39;;;;;;;0.32;0.30;;;;;;;37.74;17.66;95128.47;5073803;28;20186;-57
2022/08/10 10:43:21;;;;;;;0.30;0.30;;;;;;;37.80;16.82;95132.19;5073156;28;20243;-58
2022/08/10 10:46:03;;;;;;;0.60;0.40;;;;;;;37.55;17.09;95126.75;5073076;28;20667;-57
2022/08/10 10:48:40;;;;;;;0.30;0.30;;;;;;;38.57;16.55;95100.88;5073611;28;20295;-58
2022/08/10 10:51:16;;;;;;;0.65;0.65;;;;;;;39.67;17.04;95113.78;5073767;28;20612;-57
2022/08/10 10:53:53;;;;;;;1.02;0.35;;;;;;;39.55;15.84;95105.59;5073383;28;20223;-56
2022/08/10 10:56:35;;;;;;;0.35;0.30;;;;;;;39.56;16.39;95090.50;5073745;28;20194;-57
2022/08/10 10:59:14;;;;;;;2.03;0.40;;;;;;;38.94;16.49;95109.34;5072383;28;20223;-57
2022/08/10 11:02:18;;;;;;;0.60;0.60;;;;;;;37.96;17.42;95101.59;5073043;28;20575;-57
2022/08/10 11:04:57;;;;;;;0.32;0.30;;;;;;;37.05;17.88;95111.06;5073005;28;20287;-57
2022/08/10 11:07:34;;;;;;;0.40;0.40;;;;;;;36.96;18.84;95105.44;5073013;28;20278;-53
2022/08/10 11:10:09;;;;;;;5.25;0.50;;;;;;;37.31;17.66;95101.50;5073671;28;20241;-53
2022/08/10 11:13:24;;;;;;;0.40;0.40;;;;;;;36.38;17.50;95035.84;5073001;28;20289;-53
2022/08/10 11:16:18;;;;;;;0.43;0.30;;;;;;;36.86;18.73;95103.78;5073366;28;20319;-54
2022/08/10 11:18:57;;;;;;;0.43;0.43;;;;;;;36.53;19.47;95106.00;5072594;28;20679;-53
2022/08/10 11:21:43;;;;;;;0.40;0.30;;;;;;;36.05;19.69;95103.50;5072000;28;20233;-53
2022/08/10 11:24:20;;;;;;;0.40;0.40;;;;;;;35.74;20.98;95105.16;5072737;28;20229;-54
2022/08/10 11:27:16;;;;;;;0.53;0.53;;;;;;;35.17;20.39;95100.34;5073009;28;20190;-54
2022/08/10 11:30:00;;;;;;;0.53;0.40;;;;;;;34.87;20.39;95106.97;5072810;28;20205;-53
2022/08/10 11:32:37;;;;;;;0.60;0.30;;;;;;;34.82;20.36;95100.00;5072968;28;20186;-54
2022/08/10 11:35:18;;;;;;;0.40;0.30;;;;;;;34.70;21.16;95110.91;5072699;28;20214;-53
2022/08/10 11:37:57;;;;;;;0.50;0.47;;;;;;;33.97;21.44;95108.56;5072597;28;20265;-53
2022/08/10 11:40:53;;;;;;;0.60;0.60;;;;;;;33.65;21.73;95111.97;5072482;28;20208;-53
2022/08/10 11:43:26;;;;;;;0.60;0.40;;;;;;;33.12;22.41;95046.97;5072710;28;20280;-54
2022/08/10 11:46:05;;;;;;;0.40;0.40;;;;;;;32.93;22.25;95094.38;5072315;28;20273;-53
2022/08/10 11:48:42;;;;;;;11.43;1.27;;;;;;;32.82;22.35;95099.25;5072211;28;20432;-54
2022/08/10 11:51:35;;;;;;;1.47;0.57;;;;;;;32.94;22.81;95098.69;5072228;28;20488;-55
2022/08/10 11:54:11;;;;;;;0.40;0.40;;;;;;;32.78;22.88;95104.81;5072492;28;20563;-55
2022/08/10 11:56:46;;;;;;;0.40;0.40;;;;;;;33.19;23.92;95104.53;5072510;28;20448;-55
2022/08/10 12:02:05;;;;;;;0.50;0.40;;;;;;;33.82;22.89;95102.59;5072481;28;20475;-54
2022/08/10 12:04:35;;;;;;;0.40;0.40;;;;;;;34.50;21.54;95099.94;5072488;28;20424;-53
2022/08/10 12:07:07;;;;;;;1.20;1.07;;;;;;;33.91;19.88;95102.78;5071877;28;20478;-53
2022/08/10 12:09:56;;;;;;;0.70;0.70;;;;;;;33.43;21.04;95103.31;5071852;28;20445;-53
2022/08/10 12:12:45;;;;;;;0.53;0.50;;;;;;;33.73;22.86;95121.59;5072154;28;20425;-53
2022/08/10 12:15:19;;;;;;;0.50;0.50;;;;;;;34.16;21.72;95113.28;5071840;28;20452;-52
2022/08/10 12:17:53;;;;;;;1.13;0.60;;;;;;;34.16;23.53;95105.81;5071613;28;20503;-52
2022/08/10 12:20:29;;;;;;;0.40;0.40;;;;;;;34.41;23.38;95127.28;5071905;28;20428;-53
2022/08/10 12:23:07;;;;;;;1.10;1.00;;;;;;;34.59;24.33;95116.66;5071950;28;20448;-53
2022/08/10 12:25:41;;;;;;;0.50;0.50;;;;;;;34.83;24.16;95120.84;5072106;28;20906;-53
2022/08/10 12:28:31;;;;;;;0.70;0.50;;;;;;;34.24;25.15;95126.47;5071874;28;20989;-53
2022/08/10 12:31:23;;;;;;;0.60;0.43;;;;;;;33.66;25.53;95130.00;5071946;28;20468;-53
2022/08/10 12:34:03;;;;;;;0.50;0.40;;;;;;;33.60;26.97;95135.19;5071720;28;20985;-53